Time;durP1;ratioP1;P1;durP2;ratioP2;P2;SDS_P1;SDS_P2;PMS_P1;PMS_P2;Temp;Humidity;BMP_temperature;BMP_pressure;BME280_temperature;BME280_humidity;BME280_pressure;Samples;Min_cycle;Max_cycle;Signal;HPM_P1;HPM_P2
2022/04/05 00:00:19;;;;;;;18.27;5.95;;;9.90;99.90;;;;;;5094398;28;20024;-37
2022/04/05 00:02:44;;;;;;;18.38;5.82;;;9.90;99.90;;;;;;5093387;28;20491;-35
2022/04/05 00:05:10;;;;;;;17.85;6.07;;;9.90;99.90;;;;;;5093477;28;20475;-34
2022/04/05 00:07:35;;;;;;;24.77;6.22;;;9.90;99.90;;;;;;5093228;28;20028;-36
2022/04/05 00:10:01;;;;;;;20.63;6.60;;;9.90;99.90;;;;;;5092875;28;20420;-34
2022/04/05 00:12:27;;;;;;;22.08;6.45;;;9.90;99.90;;;;;;5093615;28;20027;-45
2022/04/05 00:14:53;;;;;;;18.02;5.70;;;9.90;99.90;;;;;;5093475;28;20044;-36
2022/04/05 00:17:19;;;;;;;17.50;6.38;;;9.90;99.90;;;;;;5092660;28;20020;-37
2022/04/05 00:19:44;;;;;;;22.65;8.00;;;9.90;99.90;;;;;;5092613;28;20391;-36
2022/04/05 00:22:10;;;;;;;16.85;6.65;;;9.90;99.90;;;;;;5092801;28;20487;-36
2022/04/05 00:24:36;;;;;;;16.95;4.50;;;9.80;99.90;;;;;;5093029;28;20039;-37
2022/04/05 00:27:01;;;;;;;11.07;2.67;;;9.70;99.90;;;;;;5093418;28;20099;-36
2022/04/05 00:29:27;;;;;;;5.35;2.22;;;9.60;99.90;;;;;;5092887;28;20016;-36
2022/04/05 00:31:53;;;;;;;5.25;2.35;;;9.50;99.90;;;;;;5092927;28;20028;-36
2022/04/05 00:34:18;;;;;;;6.65;1.27;;;9.30;99.90;;;;;;5092434;28;20395;-45
2022/04/05 00:36:45;;;;;;;2.08;1.20;;;9.30;99.90;;;;;;5093359;28;20023;-36
2022/04/05 00:39:11;;;;;;;4.28;1.30;;;9.20;99.90;;;;;;5093079;28;20028;-44
2022/04/05 00:41:37;;;;;;;1.10;1.00;;;9.10;99.90;;;;;;5093035;28;20028;-37
2022/04/05 00:44:03;;;;;;;2.70;0.73;;;9.10;99.90;;;;;;5091144;28;20036;-36
2022/04/05 00:46:28;;;;;;;4.25;0.95;;;9.10;99.90;;;;;;5093018;28;20062;-36
2022/04/05 00:48:57;;;;;;;0.90;0.77;;;9.10;99.90;;;;;;5092287;28;20024;-36
2022/04/05 00:51:24;;;;;;;1.50;0.70;;;9.10;99.90;;;;;;5107284;28;20043;-50
2022/04/05 00:54:02;;;;;;;1.55;0.90;;;9.00;99.90;;;;;;5091693;28;20009;-33
2022/04/05 00:56:28;;;;;;;0.82;0.82;;;8.90;99.90;;;;;;5092115;28;20537;-47
2022/04/05 00:58:54;;;;;;;4.10;0.90;;;8.90;99.90;;;;;;5092770;28;20486;-33
2022/04/05 01:01:25;;;;;;;1.92;1.02;;;8.90;99.90;;;;;;5088136;28;20028;-34
2022/04/05 01:03:53;;;;;;;4.35;1.73;;;9.00;99.90;;;;;;5091230;28;20057;-40
2022/04/05 01:06:23;;;;;;;5.32;1.80;;;9.00;99.90;;;;;;5090872;28;20016;-36
2022/04/05 01:08:50;;;;;;;2.70;1.73;;;8.90;99.90;;;;;;5072872;28;20503;-36
2022/04/05 01:11:16;;;;;;;3.28;1.45;;;9.00;99.90;;;;;;5092584;28;20744;-36
2022/04/05 01:13:42;;;;;;;3.63;1.70;;;8.90;99.90;;;;;;5094942;28;20040;-35
2022/04/05 01:16:09;;;;;;;8.02;1.90;;;8.90;99.90;;;;;;5095133;28;20016;-37
2022/04/05 01:18:35;;;;;;;1.90;1.60;;;8.90;99.90;;;;;;5094149;28;20107;-37
2022/04/05 01:21:01;;;;;;;2.30;1.45;;;9.00;99.90;;;;;;5094839;28;20062;-37
2022/04/05 01:23:26;;;;;;;2.78;2.08;;;9.00;99.90;;;;;;5095352;28;20027;-38
2022/04/05 01:25:52;;;;;;;4.57;1.50;;;9.00;99.90;;;;;;5095724;28;20067;-45
2022/04/05 01:28:19;;;;;;;2.28;2.03;;;9.00;99.90;;;;;;5089825;28;20494;-41
2022/04/05 01:30:45;;;;;;;4.83;1.90;;;9.00;99.90;;;;;;5095485;28;20043;-38
2022/04/05 01:33:11;;;;;;;4.03;2.45;;;9.00;99.90;;;;;;5096233;28;20028;-38
2022/04/05 01:35:37;;;;;;;4.28;2.60;;;9.10;99.90;;;;;;5093513;28;20036;-36
2022/04/05 01:38:04;;;;;;;5.20;2.35;;;9.10;99.90;;;;;;5092956;28;20020;-38
2022/04/05 01:40:29;;;;;;;3.60;2.40;;;9.10;99.90;;;;;;5094867;28;20392;-38
2022/04/05 01:43:14;;;;;;;4.68;2.67;;;9.10;99.90;;;;;;5095045;28;20043;-38
2022/04/05 01:45:43;;;;;;;7.68;2.92;;;9.10;99.90;;;;;;5094859;28;20067;-38
2022/04/05 01:48:08;;;;;;;4.18;2.38;;;9.10;99.90;;;;;;5094154;28;20031;-38
2022/04/05 01:50:34;;;;;;;7.07;2.72;;;9.10;99.90;;;;;;5094315;28;20032;-37
2022/04/05 01:53:00;;;;;;;8.43;2.92;;;9.10;99.90;;;;;;5093548;28;20387;-38
2022/04/05 01:55:25;;;;;;;4.95;2.65;;;9.10;99.90;;;;;;5093566;28;20034;-38
2022/04/05 01:57:51;;;;;;;5.22;2.88;;;9.20;99.90;;;;;;5093497;28;20020;-38
2022/04/05 02:00:17;;;;;;;6.15;3.80;;;9.20;99.90;;;;;;5093649;28;20048;-39
2022/04/05 02:02:43;;;;;;;3.63;2.72;;;9.20;99.90;;;;;;5094952;28;20039;-39
2022/04/05 02:05:10;;;;;;;5.35;2.70;;;9.20;99.90;;;;;;5094270;28;20051;-38
2022/04/05 02:07:37;;;;;;;5.00;2.80;;;9.20;99.90;;;;;;5093435;28;20077;-38
2022/04/05 02:10:03;;;;;;;6.30;2.72;;;9.30;99.90;;;;;;5093943;28;20115;-38
2022/04/05 02:12:29;;;;;;;2.60;2.40;;;9.30;99.90;;;;;;5094539;28;20039;-38
2022/04/05 02:14:54;;;;;;;3.10;2.80;;;9.20;99.90;;;;;;5093582;28;20039;-42
2022/04/05 02:17:20;;;;;;;4.20;2.67;;;9.20;99.90;;;;;;5094555;28;20399;-48
2022/04/05 02:19:46;;;;;;;5.07;2.53;;;9.30;99.90;;;;;;5093584;28;20028;-38
2022/04/05 02:22:11;;;;;;;5.53;2.72;;;9.20;99.90;;;;;;5094925;28;20476;-38
2022/04/05 02:24:37;;;;;;;5.82;3.28;;;9.20;99.90;;;;;;5095289;28;20024;-38
2022/04/05 02:27:03;;;;;;;7.95;3.22;;;9.20;99.90;;;;;;5095414;28;20032;-38
2022/04/05 02:29:28;;;;;;;8.65;2.97;;;9.30;99.90;;;;;;5094987;28;20476;-38
2022/04/05 02:31:54;;;;;;;7.38;4.07;;;9.20;99.90;;;;;;5095142;28;20070;-38
2022/04/05 02:34:20;;;;;;;8.60;4.10;;;9.20;99.90;;;;;;5094889;28;20032;-38
2022/04/05 02:36:45;;;;;;;6.70;3.80;;;9.30;99.90;;;;;;5094057;28;20054;-37
2022/04/05 02:39:11;;;;;;;10.10;4.30;;;9.20;99.90;;;;;;5095720;28;20464;-38
2022/04/05 02:41:37;;;;;;;9.27;3.92;;;9.20;99.90;;;;;;5094737;28;20082;-38
2022/04/05 02:44:03;;;;;;;8.93;4.47;;;9.20;99.90;;;;;;5094486;28;20316;-38
2022/04/05 02:46:28;;;;;;;8.30;4.47;;;9.20;99.90;;;;;;5094900;28;20415;-38
2022/04/05 02:48:54;;;;;;;9.98;4.28;;;9.20;99.90;;;;;;5094810;28;20464;-37
2022/04/05 02:51:22;;;;;;;9.15;5.38;;;9.20;99.90;;;;;;5092524;28;20110;-38
2022/04/05 02:53:48;;;;;;;11.90;5.15;;;9.20;99.90;;;;;;5094145;28;20077;-45
2022/04/05 02:56:14;;;;;;;9.68;4.53;;;9.20;99.90;;;;;;5093005;28;20032;-38
2022/04/05 02:58:40;;;;;;;7.05;4.53;;;9.10;99.90;;;;;;5093430;28;20051;-38
2022/04/05 03:01:06;;;;;;;8.10;4.95;;;9.20;99.90;;;;;;5092985;28;20491;-36
2022/04/05 03:03:32;;;;;;;8.35;4.47;;;9.10;99.90;;;;;;5093037;28;20027;-38
2022/04/05 03:05:58;;;;;;;14.38;5.05;;;9.10;99.90;;;;;;5092923;28;20024;-38
2022/04/05 03:08:24;;;;;;;9.40;5.22;;;9.10;99.90;;;;;;5092815;28;20519;-38
2022/04/05 03:10:50;;;;;;;9.15;4.97;;;9.10;99.90;;;;;;5092470;28;20016;-38
2022/04/05 03:13:15;;;;;;;8.13;5.15;;;9.10;99.90;;;;;;5093424;28;20044;-38
2022/04/05 03:15:41;;;;;;;8.43;4.35;;;9.10;99.90;;;;;;5092561;28;20024;-38
2022/04/05 03:18:07;;;;;;;10.27;4.53;;;9.10;99.90;;;;;;5092700;28;20107;-38
2022/04/05 03:20:32;;;;;;;7.10;4.30;;;9.20;99.90;;;;;;5092204;28;20021;-38
2022/04/05 03:23:00;;;;;;;8.93;4.68;;;9.20;99.90;;;;;;5091973;28;20032;-37
2022/04/05 03:25:27;;;;;;;8.40;5.10;;;9.20;99.90;;;;;;5093418;28;20028;-38
2022/04/05 03:27:53;;;;;;;8.00;4.63;;;9.20;99.90;;;;;;5081833;28;20110;-37
2022/04/05 03:30:21;;;;;;;7.45;4.03;;;9.20;99.90;;;;;;5092082;28;20373;-38
2022/04/05 03:32:47;;;;;;;12.35;4.72;;;9.20;99.90;;;;;;5092329;28;20031;-37
2022/04/05 03:35:13;;;;;;;6.43;4.13;;;9.10;99.90;;;;;;5092474;28;20399;-38
2022/04/05 03:37:39;;;;;;;9.98;4.65;;;9.10;99.90;;;;;;5091251;28;20024;-38
2022/04/05 03:40:06;;;;;;;13.45;4.50;;;9.10;99.90;;;;;;5092243;28;20504;-38
2022/04/05 03:42:32;;;;;;;12.75;4.53;;;9.20;99.90;;;;;;5092204;28;20123;-38
2022/04/05 03:44:58;;;;;;;7.25;3.95;;;9.20;99.90;;;;;;5092440;28;20024;-38
2022/04/05 03:47:24;;;;;;;7.40;4.30;;;9.20;99.90;;;;;;5093108;28;20081;-37
2022/04/05 03:49:49;;;;;;;12.50;4.85;;;9.20;99.90;;;;;;5092429;28;20085;-31
2022/04/05 03:52:15;;;;;;;9.30;3.85;;;9.10;99.90;;;;;;5093386;28;20024;-36
2022/04/05 03:54:41;;;;;;;9.82;4.22;;;9.20;99.90;;;;;;5092329;28;20058;-38
2022/04/05 03:57:06;;;;;;;9.00;4.30;;;9.20;99.90;;;;;;5093353;28;20031;-37
2022/04/05 03:59:32;;;;;;;8.60;3.85;;;9.20;99.90;;;;;;5091306;28;20024;-38
2022/04/05 04:01:59;;;;;;;9.68;4.15;;;9.20;99.90;;;;;;5092649;28;20523;-38
2022/04/05 04:04:24;;;;;;;9.27;3.95;;;9.20;99.90;;;;;;5089410;28;20069;-35
2022/04/05 04:06:50;;;;;;;7.38;4.43;;;9.20;99.90;;;;;;5092574;28;20032;-38
2022/04/05 04:09:15;;;;;;;8.48;3.53;;;9.30;99.90;;;;;;5092508;28;20059;-37
2022/04/05 04:11:41;;;;;;;9.93;5.05;;;9.30;99.90;;;;;;5091018;28;20031;-38
2022/04/05 04:14:09;;;;;;;7.40;4.50;;;9.30;99.90;;;;;;5091305;28;20036;-38
2022/04/05 04:16:34;;;;;;;9.05;4.38;;;9.30;99.90;;;;;;5091431;28;20494;-37
2022/04/05 04:19:00;;;;;;;7.30;4.10;;;9.30;99.90;;;;;;5091056;28;20099;-38
2022/04/05 04:21:26;;;;;;;8.65;4.78;;;9.30;99.90;;;;;;5093234;28;20541;-35
2022/04/05 04:23:52;;;;;;;13.18;5.60;;;9.30;99.90;;;;;;5093406;28;20020;-38
2022/04/05 04:26:17;;;;;;;9.00;5.20;;;9.30;99.90;;;;;;5091034;28;20078;-45
2022/04/05 04:28:43;;;;;;;9.98;4.93;;;9.30;99.90;;;;;;5093245;28;20111;-38
2022/04/05 04:31:09;;;;;;;9.40;5.40;;;9.30;99.90;;;;;;5093145;28;20024;-39
2022/04/05 04:33:34;;;;;;;10.43;6.53;;;9.30;99.90;;;;;;5092875;28;20036;-38
2022/04/05 04:36:00;;;;;;;15.30;6.68;;;9.30;99.90;;;;;;5091509;28;20538;-38
2022/04/05 04:38:26;;;;;;;12.68;6.15;;;9.30;99.90;;;;;;5092463;28;20097;-38
2022/04/05 04:40:52;;;;;;;9.80;5.43;;;9.30;99.90;;;;;;5092828;28;20095;-39
2022/04/05 04:43:18;;;;;;;11.68;5.60;;;9.40;99.90;;;;;;5093005;28;20110;-41
2022/04/05 04:45:45;;;;;;;10.82;5.60;;;9.40;99.90;;;;;;5096077;28;20028;-38
2022/04/05 04:48:11;;;;;;;10.73;4.88;;;9.40;99.90;;;;;;5096698;28;20028;-38
2022/04/05 04:50:37;;;;;;;10.35;4.93;;;9.50;99.90;;;;;;5095663;28;20028;-38
2022/04/05 04:53:03;;;;;;;12.32;4.97;;;9.40;99.90;;;;;;5096285;28;20076;-38
2022/04/05 04:55:29;;;;;;;7.97;5.13;;;9.50;99.90;;;;;;5094860;28;20476;-37
2022/04/05 04:57:56;;;;;;;9.93;5.47;;;9.50;99.90;;;;;;5095830;28;20035;-37
2022/04/05 05:00:21;;;;;;;8.93;5.38;;;9.60;99.90;;;;;;5095568;28;20052;-38
2022/04/05 05:02:48;;;;;;;10.40;5.70;;;9.60;99.90;;;;;;5093974;28;20079;-36
2022/04/05 05:05:21;;;;;;;10.93;6.03;;;9.60;99.90;;;;;;5093859;28;20492;-37
2022/04/05 05:07:48;;;;;;;16.20;7.82;;;9.70;99.90;;;;;;5096536;28;20034;-37
2022/04/05 05:10:18;;;;;;;21.98;7.18;;;9.70;99.90;;;;;;5094685;28;20020;-38
2022/04/05 05:12:44;;;;;;;16.40;7.10;;;9.80;99.90;;;;;;5095730;28;20038;-52
2022/04/05 05:15:15;;;;;;;17.55;8.30;;;9.80;99.90;;;;;;5093946;28;20115;-38
2022/04/05 05:17:41;;;;;;;24.67;7.57;;;9.80;99.90;;;;;;5094144;28;20054;-36
2022/04/05 05:20:07;;;;;;;19.55;8.05;;;9.80;99.90;;;;;;5096364;28;20027;-38
2022/04/05 05:22:33;;;;;;;15.43;7.00;;;9.80;99.90;;;;;;5093876;28;20024;-39
2022/04/05 05:24:59;;;;;;;17.75;7.38;;;9.80;99.90;;;;;;5093150;28;20039;-38
2022/04/05 05:27:25;;;;;;;16.70;7.45;;;9.80;99.90;;;;;;5095504;28;20028;-38
2022/04/05 05:29:50;;;;;;;13.48;7.03;;;9.80;99.90;;;;;;5095381;28;20020;-37
2022/04/05 05:32:16;;;;;;;14.55;6.05;;;9.80;99.90;;;;;;5094357;28;20036;-37
2022/04/05 05:34:42;;;;;;;15.95;7.55;;;9.80;99.90;;;;;;5095160;28;20479;-37
2022/04/05 05:37:08;;;;;;;21.27;6.63;;;9.80;99.90;;;;;;5096160;28;20026;-38
2022/04/05 05:39:35;;;;;;;21.17;6.65;;;9.80;99.90;;;;;;5094662;28;20486;-38
2022/04/05 05:42:00;;;;;;;23.45;6.68;;;9.90;99.90;;;;;;5094064;28;20028;-39
2022/04/05 05:44:26;;;;;;;16.48;5.85;;;9.90;99.90;;;;;;5095030;28;20429;-39
2022/04/05 05:46:52;;;;;;;14.45;5.43;;;9.90;99.90;;;;;;5095554;28;20054;-38
2022/04/05 05:49:17;;;;;;;15.82;6.03;;;10.00;99.90;;;;;;5094776;28;20032;-39
2022/04/05 05:51:43;;;;;;;16.58;6.82;;;10.00;99.90;;;;;;5094986;28;20085;-38
2022/04/05 05:54:09;;;;;;;18.85;6.25;;;10.00;99.90;;;;;;5094195;28;20044;-37
2022/04/05 05:56:34;;;;;;;17.13;6.10;;;10.00;99.90;;;;;;5095242;28;20020;-37
2022/04/05 05:59:00;;;;;;;17.75;6.15;;;10.10;99.90;;;;;;5094489;28;20445;-38
2022/04/05 06:01:26;;;;;;;19.80;6.75;;;10.10;99.90;;;;;;5094594;28;20028;-37
2022/04/05 06:03:51;;;;;;;14.65;5.55;;;10.10;99.90;;;;;;5093426;28;20032;-37
2022/04/05 06:06:17;;;;;;;23.90;5.53;;;10.10;99.90;;;;;;5094922;28;20036;-38
2022/04/05 06:08:43;;;;;;;12.32;5.25;;;10.00;99.90;;;;;;5094635;28;20164;-35
2022/04/05 06:11:10;;;;;;;17.10;5.30;;;10.00;99.90;;;;;;5093587;28;20430;-36
2022/04/05 06:13:36;;;;;;;19.40;6.20;;;10.00;99.90;;;;;;5092208;28;20051;-37
2022/04/05 06:16:02;;;;;;;15.63;5.40;;;10.00;99.90;;;;;;5093704;28;20020;-36
2022/04/05 06:18:28;;;;;;;8.35;5.13;;;10.00;99.90;;;;;;5093931;28;20115;-38
2022/04/05 06:20:54;;;;;;;11.82;4.93;;;10.00;99.90;;;;;;5092691;28;20110;-36
2022/04/05 06:23:19;;;;;;;16.05;5.60;;;10.10;99.90;;;;;;5093821;28;20036;-36
2022/04/05 06:25:45;;;;;;;13.77;4.78;;;10.10;99.90;;;;;;5095147;28;20541;-43
2022/04/05 06:28:11;;;;;;;20.98;6.07;;;10.10;99.90;;;;;;5095100;28;20102;-37
2022/04/05 06:30:39;;;;;;;17.83;5.68;;;10.20;99.90;;;;;;5095162;28;20028;-37
2022/04/05 06:33:05;;;;;;;;;;;10.20;99.90;;;;;;5095274;28;20484;-45
2022/04/05 06:35:31;;;;;;;11.95;4.78;;;10.30;99.90;;;;;;5094908;28;20325;-37
2022/04/05 06:37:56;;;;;;;14.85;5.70;;;10.30;99.90;;;;;;5095072;28;20020;-38
2022/04/05 06:40:22;;;;;;;11.35;3.95;;;10.30;99.90;;;;;;5094762;28;20024;-38
2022/04/05 06:42:47;;;;;;;18.35;5.05;;;10.30;99.90;;;;;;5096360;28;20030;-37
2022/04/05 06:45:17;;;;;;;8.75;4.57;;;10.40;99.90;;;;;;5098275;28;20499;-37
2022/04/05 06:47:43;;;;;;;9.68;3.83;;;10.40;99.90;;;;;;5094522;28;20020;-43
2022/04/05 06:50:11;;;;;;;13.57;4.35;;;10.40;99.90;;;;;;5094825;28;20031;-36
2022/04/05 06:52:38;;;;;;;7.57;3.83;;;10.50;99.90;;;;;;5094001;28;20028;-37
2022/04/05 06:55:05;;;;;;;11.82;3.97;;;10.50;99.90;;;;;;5093841;28;20056;-37
2022/04/05 06:57:30;;;;;;;5.00;3.80;;;10.60;99.90;;;;;;5092770;28;20055;-36
2022/04/05 06:59:56;;;;;;;6.32;3.65;;;10.60;99.90;;;;;;5093787;28;20016;-37
2022/04/05 07:02:22;;;;;;;11.27;3.95;;;10.60;99.90;;;;;;5093379;28;20361;-36
2022/04/05 07:04:48;;;;;;;8.88;4.03;;;10.50;99.90;;;;;;5091713;28;20030;-39
2022/04/05 07:07:14;;;;;;;5.10;3.28;;;10.50;99.90;;;;;;5092572;28;20035;-38
2022/04/05 07:09:39;;;;;;;10.68;3.80;;;10.40;99.90;;;;;;5093433;28;20028;-39
2022/04/05 07:12:07;;;;;;;9.00;4.03;;;10.40;99.90;;;;;;5090832;28;20040;-37
2022/04/05 07:14:33;;;;;;;5.22;3.88;;;10.30;99.90;;;;;;5090216;28;20036;-35
2022/04/05 07:16:59;;;;;;;15.55;4.10;;;10.30;99.90;;;;;;5092587;28;20016;-37
2022/04/05 07:19:26;;;;;;;17.95;4.55;;;10.40;99.90;;;;;;5090386;28;20028;-39
2022/04/05 07:21:52;;;;;;;11.33;3.77;;;10.40;99.90;;;;;;5094177;28;20060;-40
2022/04/05 07:24:18;;;;;;;9.13;3.70;;;10.40;99.90;;;;;;5090506;28;20078;-37
2022/04/05 07:26:45;;;;;;;10.70;4.93;;;10.50;99.90;;;;;;5094127;28;20016;-38
2022/04/05 07:29:12;;;;;;;14.63;4.55;;;10.60;99.90;;;;;;5075215;28;20217;-38
2022/04/05 07:31:38;;;;;;;9.90;4.10;;;10.60;99.90;;;;;;5093552;28;20025;-37
2022/04/05 07:34:04;;;;;;;6.15;3.63;;;10.60;99.90;;;;;;5090269;28;20023;-38
2022/04/05 07:36:49;;;;;;;9.82;3.50;;;10.50;99.90;;;;;;5092983;28;20584;-38
2022/04/05 07:39:15;;;;;;;7.35;3.35;;;10.50;99.90;;;;;;5085334;28;20028;-37
2022/04/05 07:41:41;;;;;;;8.18;3.38;;;10.50;99.90;;;;;;5095896;28;20026;-39
2022/04/05 07:44:07;;;;;;;9.65;3.58;;;10.60;99.90;;;;;;5092368;28;20047;-38
2022/04/05 07:46:35;;;;;;;7.05;3.33;;;10.50;99.90;;;;;;5091867;28;20478;-37
2022/04/05 07:49:00;;;;;;;6.37;3.43;;;10.50;99.90;;;;;;5092351;28;20016;-49
2022/04/05 07:51:27;;;;;;;12.95;3.40;;;10.60;99.90;;;;;;5092847;28;20035;-38
2022/04/05 07:53:53;;;;;;;10.10;2.95;;;10.70;99.90;;;;;;5091660;28;20024;-38
2022/04/05 07:56:19;;;;;;;9.27;3.08;;;10.80;99.90;;;;;;5091306;28;20125;-38
2022/04/05 07:58:45;;;;;;;6.88;2.85;;;11.00;99.90;;;;;;5091959;28;20040;-36
2022/04/05 08:01:11;;;;;;;8.55;3.13;;;11.10;99.90;;;;;;5091791;28;20020;-38
2022/04/05 08:03:38;;;;;;;13.68;3.55;;;11.40;99.90;;;;;;5090054;28;20077;-37
2022/04/05 08:06:03;;;;;;;5.47;2.70;;;11.30;99.90;;;;;;5091763;28;20063;-38
2022/04/05 08:08:29;;;;;;;9.02;2.75;;;11.40;99.90;;;;;;5091665;28;20059;-38
2022/04/05 08:10:56;;;;;;;6.40;2.78;;;11.30;99.90;;;;;;5090390;28;20046;-38
2022/04/05 08:13:22;;;;;;;7.75;3.50;;;11.40;99.90;;;;;;5091808;28;20130;-36
2022/04/05 08:15:50;;;;;;;8.90;3.03;;;11.30;99.90;;;;;;5091059;28;20520;-38
2022/04/05 08:18:16;;;;;;;11.43;2.58;;;11.40;99.90;;;;;;5093135;28;20024;-39
2022/04/05 08:20:42;;;;;;;5.28;2.67;;;11.40;99.90;;;;;;5091413;28;20487;-36
2022/04/05 08:23:08;;;;;;;4.22;2.30;;;11.50;99.90;;;;;;5092078;28;20042;-38
2022/04/05 08:25:34;;;;;;;10.02;2.97;;;11.40;99.90;;;;;;5083143;28;20533;-36
2022/04/05 08:28:00;;;;;;;6.43;2.75;;;11.30;99.90;;;;;;5091506;28;20104;-32
2022/04/05 08:30:26;;;;;;;9.38;2.97;;;11.40;99.90;;;;;;5090689;28;20111;-37
2022/04/05 08:32:51;;;;;;;8.35;2.67;;;11.50;99.90;;;;;;5088674;28;20032;-38
2022/04/05 08:35:20;;;;;;;12.63;3.10;;;11.50;99.90;;;;;;5092524;28;20024;-38
2022/04/05 08:37:47;;;;;;;8.85;2.88;;;11.60;99.90;;;;;;5089634;28;20063;-37
2022/04/05 08:40:15;;;;;;;9.20;3.05;;;11.60;99.90;;;;;;5087702;28;20025;-38
2022/04/05 08:42:44;;;;;;;5.38;3.13;;;11.60;99.90;;;;;;5092033;28;20487;-37
2022/04/05 08:45:12;;;;;;;13.63;3.90;;;11.70;99.90;;;;;;5092299;28;20098;-39
2022/04/05 08:47:58;;;;;;;6.85;3.05;;;11.60;99.90;;;;;;5092003;28;20464;-43
2022/04/05 08:50:32;;;;;;;10.88;2.92;;;11.50;99.90;;;;;;5090790;28;20027;-38
2022/04/05 08:53:00;;;;;;;7.88;3.63;;;11.40;99.90;;;;;;5088401;28;20114;-38
2022/04/05 08:55:28;;;;;;;7.18;3.22;;;11.40;99.90;;;;;;5093290;28;20024;-38
2022/04/05 08:57:55;;;;;;;8.50;3.45;;;11.40;99.90;;;;;;5095256;28;20021;-38
2022/04/05 09:00:21;;;;;;;5.75;2.88;;;11.40;99.90;;;;;;5092662;28;20016;-39
2022/04/05 09:02:53;;;;;;;13.10;3.08;;;11.40;99.90;;;;;;5111011;28;20032;-38
2022/04/05 09:05:32;;;;;;;9.38;3.25;;;11.40;99.90;;;;;;5091406;28;20040;-39
2022/04/05 09:08:28;;;;;;;8.65;2.92;;;11.40;99.90;;;;;;5092497;28;20043;-39
2022/04/05 09:11:03;;;;;;;6.20;3.73;;;11.40;99.90;;;;;;5093734;28;20016;-37
2022/04/05 09:13:29;;;;;;;8.68;3.40;;;11.40;99.90;;;;;;5088197;28;20036;-38
2022/04/05 09:15:59;;;;;;;6.68;3.88;;;11.30;99.90;;;;;;5092719;28;20122;-35
2022/04/05 09:18:40;;;;;;;7.07;3.28;;;11.20;99.90;;;;;;5092715;28;20012;-38
2022/04/05 09:21:11;;;;;;;7.63;3.45;;;11.20;99.90;;;;;;5091627;28;20438;-38
2022/04/05 09:23:41;;;;;;;6.93;3.63;;;11.10;99.90;;;;;;5089959;28;20574;-38
2022/04/05 09:26:09;;;;;;;7.95;3.35;;;11.30;99.90;;;;;;5091822;28;20027;-38
2022/04/05 09:28:37;;;;;;;6.50;3.38;;;11.40;99.90;;;;;;5101747;28;20028;-37
2022/04/05 09:31:07;;;;;;;6.43;3.40;;;11.60;99.90;;;;;;5093628;28;20024;-38
2022/04/05 09:33:35;;;;;;;5.75;3.35;;;11.70;99.90;;;;;;5096340;28;20028;-37
2022/04/05 09:36:11;;;;;;;5.32;3.15;;;11.70;99.90;;;;;;5096543;28;20028;-39
2022/04/05 09:38:38;;;;;;;9.70;3.35;;;11.70;99.90;;;;;;5096468;28;20526;-39
2022/04/05 09:41:14;;;;;;;9.50;4.10;;;11.80;99.90;;;;;;5094660;28;20480;-39
2022/04/05 09:43:51;;;;;;;10.13;3.28;;;11.70;99.90;;;;;;5095628;28;20031;-38
2022/04/05 09:46:16;;;;;;;8.60;2.97;;;11.70;99.90;;;;;;5096245;28;20032;-38
2022/04/05 09:48:42;;;;;;;10.45;2.72;;;11.70;99.90;;;;;;5095566;28;20028;-39
2022/04/05 09:51:12;;;;;;;5.97;2.75;;;11.80;99.90;;;;;;5095702;28;20047;-39
2022/04/05 09:53:56;;;;;;;7.28;2.85;;;11.70;99.90;;;;;;5095835;28;20046;-37
2022/04/05 09:56:39;;;;;;;4.38;2.70;;;11.90;99.90;;;;;;5095867;28;20027;-39
2022/04/05 09:59:14;;;;;;;6.50;2.65;;;12.00;99.90;;;;;;5095711;28;20077;-37
2022/04/05 10:01:40;;;;;;;5.13;2.88;;;11.90;99.90;;;;;;5093687;28;20144;-38
2022/04/05 10:04:08;;;;;;;8.43;3.03;;;11.90;99.90;;;;;;5092981;28;20020;-37
2022/04/05 10:06:38;;;;;;;5.30;2.72;;;11.80;99.90;;;;;;5095681;28;20391;-39
2022/04/05 10:09:05;;;;;;;8.45;3.30;;;11.80;99.90;;;;;;5095324;28;20016;-52
2022/04/05 10:11:32;;;;;;;5.65;3.10;;;11.70;99.90;;;;;;5094331;28;20107;-39
2022/04/05 10:13:59;;;;;;;5.40;2.60;;;11.70;99.90;;;;;;5095071;28;20504;-39
2022/04/05 10:16:26;;;;;;;6.57;2.95;;;11.70;99.90;;;;;;5095170;28;20024;-38
2022/04/05 10:19:01;;;;;;;5.65;2.75;;;11.80;99.90;;;;;;5095405;28;20476;-38
2022/04/05 10:21:29;;;;;;;6.75;2.70;;;11.70;99.90;;;;;;5095431;28;20107;-37
2022/04/05 10:23:55;;;;;;;;;;;11.70;99.90;;;;;;5095382;28;20075;-42
2022/04/05 10:26:27;;;;;;;12.05;3.15;;;11.80;99.90;;;;;;5095581;28;19915;-38
2022/04/05 10:28:57;;;;;;;8.18;2.83;;;11.80;99.90;;;;;;5093033;28;20085;-41
2022/04/05 10:31:25;;;;;;;6.90;2.40;;;11.90;99.90;;;;;;5077483;28;20027;-38
2022/04/05 10:34:36;;;;;;;5.47;2.75;;;11.90;99.90;;;;;;5086042;28;20453;-39
2022/04/05 10:37:28;;;;;;;4.70;2.78;;;11.90;99.90;;;;;;5088288;28;20612;-38
2022/04/05 10:39:56;;;;;;;5.18;2.90;;;11.90;99.90;;;;;;5083732;28;20471;-38
2022/04/05 10:42:25;;;;;;;8.05;4.18;;;12.00;99.90;;;;;;5094593;28;20563;-39
2022/04/05 10:45:14;;;;;;;6.05;2.70;;;12.20;99.90;;;;;;5094995;28;20412;-39
2022/04/05 10:48:09;;;;;;;7.85;2.72;;;12.20;99.90;;;;;;5094956;28;20500;-38
2022/04/05 10:50:34;;;;;;;4.72;2.47;;;12.40;99.90;;;;;;5094846;28;20051;-38
2022/04/05 10:53:15;;;;;;;4.35;2.90;;;12.50;99.90;;;;;;5094883;28;20024;-39
2022/04/05 10:56:02;;;;;;;7.47;3.10;;;12.70;99.90;;;;;;5094745;28;20522;-39
2022/04/05 10:58:46;;;;;;;3.58;1.80;;;12.80;99.90;;;;;;5077671;28;20028;-38
2022/04/05 11:01:18;;;;;;;3.45;2.17;;;12.80;99.90;;;;;;5094549;28;20051;-38
2022/04/05 11:04:16;;;;;;;3.55;2.40;;;12.90;99.90;;;;;;5094128;28;20028;-40
2022/04/05 11:07:03;;;;;;;8.70;2.67;;;13.10;99.90;;;;;;5093891;28;20074;-39
2022/04/05 11:09:43;;;;;;;9.57;2.80;;;13.10;99.90;;;;;;5094446;28;20028;-39
2022/04/05 11:12:24;;;;;;;8.52;2.97;;;13.10;99.90;;;;;;5094415;28;20027;-39
2022/04/05 11:15:04;;;;;;;8.77;2.50;;;13.00;99.90;;;;;;5093922;28;20499;-40
2022/04/05 11:17:32;;;;;;;6.07;2.85;;;13.00;99.90;;;;;;5094723;28;20116;-41
2022/04/05 11:20:01;;;;;;;6.25;2.63;;;13.00;99.90;;;;;;5100012;28;20098;-38
2022/04/05 11:22:32;;;;;;;3.88;2.20;;;12.90;99.90;;;;;;5098075;28;20045;-40
2022/04/05 11:25:04;;;;;;;4.82;2.83;;;13.00;99.90;;;;;;5099143;28;20028;-40
2022/04/05 11:27:38;;;;;;;5.15;2.47;;;13.10;99.90;;;;;;5097168;28;20467;-38
2022/04/05 11:33:09;;;;;;;6.53;2.95;;;12.90;99.90;;;;;;5098334;28;20032;-39
2022/04/05 11:35:43;;;;;;;6.88;2.60;;;12.80;99.90;;;;;;5094269;28;20024;-38
2022/04/05 11:38:20;;;;;;;9.30;2.85;;;12.80;99.90;;;;;;5104828;28;20345;-39
2022/04/05 11:40:49;;;;;;;7.68;3.15;;;12.70;99.90;;;;;;5096273;28;20020;-40
2022/04/05 11:43:28;;;;;;;6.65;3.42;;;12.70;99.90;;;;;;5091629;28;20085;-40
2022/04/05 11:45:57;;;;;;;7.55;3.00;;;12.70;99.90;;;;;;5099039;27;20507;-40
2022/04/05 11:48:26;;;;;;;6.95;3.17;;;12.70;99.90;;;;;;5093483;28;20024;-40
2022/04/05 11:50:52;;;;;;;5.90;2.85;;;12.60;99.90;;;;;;5094023;28;20024;-39
2022/04/05 11:53:29;;;;;;;3.65;3.00;;;12.50;99.90;;;;;;5092641;28;20023;-50
2022/04/05 11:56:09;;;;;;;2.57;1.90;;;12.60;99.90;;;;;;5096756;28;20117;-47
2022/04/05 11:58:36;;;;;;;5.22;2.90;;;12.60;99.90;;;;;;5092702;28;20380;-38
2022/04/05 12:01:03;;;;;;;10.53;3.27;;;12.50;99.90;;;;;;5096735;28;20020;-40
2022/04/05 12:03:51;;;;;;;4.57;3.10;;;12.70;99.90;;;;;;5093417;28;20105;-40
2022/04/05 12:06:26;;;;;;;7.30;2.90;;;12.90;99.90;;;;;;5093435;28;20059;-40
2022/04/05 12:08:53;;;;;;;6.05;3.30;;;13.10;99.90;;;;;;5093503;28;20404;-38
2022/04/05 12:11:22;;;;;;;7.07;3.75;;;13.10;99.90;;;;;;5091680;28;20028;-39
2022/04/05 12:13:53;;;;;;;5.13;3.45;;;13.10;99.90;;;;;;5088222;28;20040;-37
2022/04/05 12:16:20;;;;;;;7.72;3.50;;;13.10;99.90;;;;;;5099701;28;20090;-40
2022/04/05 12:18:46;;;;;;;5.20;3.47;;;13.10;99.90;;;;;;5093909;28;20024;-40
2022/04/05 12:21:12;;;;;;;6.68;3.55;;;13.00;99.90;;;;;;5092882;28;20123;-40
2022/04/05 12:23:42;;;;;;;6.38;3.30;;;13.00;99.90;;;;;;5093265;28;20028;-40
2022/04/05 12:26:24;;;;;;;6.65;4.00;;;12.90;99.90;;;;;;5093432;28;20548;-42
2022/04/05 12:28:55;;;;;;;7.15;2.78;;;12.70;99.90;;;;;;5090887;28;20028;-38
2022/04/05 12:31:23;;;;;;;12.43;3.95;;;12.80;99.90;;;;;;5092984;28;20020;-40
2022/04/05 12:34:11;;;;;;;8.05;3.35;;;12.80;99.90;;;;;;5091331;28;20085;-40
2022/04/05 12:36:41;;;;;;;10.63;3.50;;;12.70;99.90;;;;;;5091725;28;20020;-38
2022/04/05 12:39:21;;;;;;;4.45;3.00;;;13.00;99.90;;;;;;5093235;28;20170;-47
2022/04/05 12:41:49;;;;;;;7.22;3.72;;;13.30;99.90;;;;;;5091769;28;20078;-38
2022/04/05 12:44:17;;;;;;;8.27;3.80;;;13.40;99.90;;;;;;5095976;28;20012;-40
2022/04/05 12:46:52;;;;;;;6.85;3.40;;;13.30;99.90;;;;;;5092015;28;20032;-40
2022/04/05 12:49:26;;;;;;;5.20;3.13;;;13.30;99.90;;;;;;5093015;28;20082;-45
2022/04/05 12:51:53;;;;;;;4.90;3.20;;;13.10;99.90;;;;;;5092739;28;20043;-40
2022/04/05 12:54:26;;;;;;;13.43;4.13;;;13.10;99.90;;;;;;5093572;28;20111;-41
2022/04/05 12:56:51;;;;;;;4.38;3.38;;;13.00;99.90;;;;;;5093353;28;20024;-52